Time;durP1;ratioP1;P1;durP2;ratioP2;P2;SDS_P1;SDS_P2;PMS_P1;PMS_P2;Temp;Humidity;BMP_temperature;BMP_pressure;BME280_temperature;BME280_humidity;BME280_pressure;Samples;Min_cycle;Max_cycle;Signal;HPM_P1;HPM_P2
2023/05/07 00:01:59;;;;;;;18.80;12.50;;;14.10;99.90;;;;;;4997129;28;20104;-83
2023/05/07 00:04:28;;;;;;;19.83;13.02;;;14.00;99.90;;;;;;4996236;28;20046;-83
2023/05/07 00:07:12;;;;;;;23.55;13.45;;;14.30;99.90;;;;;;4995972;28;20132;-83
2023/05/07 00:09:49;;;;;;;21.88;13.65;;;13.90;99.90;;;;;;4996681;28;20466;-83
2023/05/07 00:12:21;;;;;;;23.65;13.63;;;14.20;99.90;;;;;;5014259;28;20037;-83
2023/05/07 00:14:47;;;;;;;22.95;13.82;;;14.20;99.90;;;;;;4996499;28;20045;-83
2023/05/07 00:17:25;;;;;;;21.48;13.77;;;13.50;99.90;;;;;;4996608;28;20041;-83
2023/05/07 00:20:07;;;;;;;20.05;13.77;;;12.80;99.90;;;;;;4996520;28;20038;-83
2023/05/07 00:22:33;;;;;;;20.45;14.13;;;13.00;99.90;;;;;;5013608;28;20041;-83
2023/05/07 00:25:16;;;;;;;21.30;13.90;;;12.80;99.90;;;;;;4996747;28;20042;-82
2023/05/07 00:28:03;;;;;;;20.73;13.77;;;12.80;99.90;;;;;;5013262;28;20049;-83
2023/05/07 00:30:32;;;;;;;21.10;13.68;;;12.80;99.90;;;;;;5014000;28;20104;-83
2023/05/07 00:32:57;;;;;;;20.38;14.05;;;13.80;99.90;;;;;;4995757;28;20045;-83
2023/05/07 00:35:23;;;;;;;21.80;13.88;;;12.90;99.90;;;;;;5012700;28;20434;-83
2023/05/07 00:37:49;;;;;;;23.23;14.57;;;12.70;99.90;;;;;;4996385;28;20041;-83
2023/05/07 00:40:15;;;;;;;23.80;15.20;;;13.60;99.90;;;;;;5013597;28;20401;-83
2023/05/07 00:42:40;;;;;;;21.25;14.48;;;12.70;99.90;;;;;;5012825;28;20042;-84
2023/05/07 00:45:08;;;;;;;22.70;14.50;;;12.60;99.90;;;;;;5013422;28;20038;-82
2023/05/07 00:47:34;;;;;;;24.80;14.60;;;12.50;99.90;;;;;;4995731;28;20046;-83
2023/05/07 00:50:00;;;;;;;22.75;15.05;;;12.80;99.90;;;;;;5012607;28;20100;-83
2023/05/07 00:52:26;;;;;;;22.27;14.65;;;13.40;99.90;;;;;;5013371;28;20045;-83
2023/05/07 00:54:55;;;;;;;24.15;15.07;;;12.30;99.90;;;;;;4995860;28;20045;-83
2023/05/07 00:57:40;;;;;;;24.45;15.50;;;12.90;99.90;;;;;;4994720;28;20050;-83
2023/05/07 01:00:08;;;;;;;23.13;15.85;;;12.50;99.90;;;;;;4999028;28;20139;-83
2023/05/07 01:02:38;;;;;;;25.65;15.95;;;12.10;99.90;;;;;;5013920;28;20054;-83
2023/05/07 01:05:06;;;;;;;24.80;15.77;;;12.10;99.90;;;;;;5018576;28;20053;-83
2023/05/07 01:07:33;;;;;;;25.65;16.20;;;12.00;99.90;;;;;;5013857;28;20048;-83
2023/05/07 01:09:59;;;;;;;25.05;15.50;;;12.20;99.90;;;;;;5011682;28;20046;-83
2023/05/07 01:12:28;;;;;;;26.00;16.08;;;11.90;99.90;;;;;;5014796;28;20045;-83
2023/05/07 01:14:54;;;;;;;25.10;16.38;;;11.80;99.90;;;;;;5019489;28;20065;-83
2023/05/07 01:17:20;;;;;;;26.67;16.65;;;11.80;99.90;;;;;;5019541;28;20104;-83
2023/05/07 01:19:47;;;;;;;24.92;16.13;;;11.80;99.90;;;;;;5021620;28;20508;-83
2023/05/07 01:22:16;;;;;;;29.15;18.35;;;11.70;99.90;;;;;;5021216;28;20046;-83
2023/05/07 01:24:42;;;;;;;25.30;16.20;;;11.70;99.90;;;;;;5011033;28;20049;-83
2023/05/07 01:27:08;;;;;;;25.90;16.83;;;12.40;99.90;;;;;;5011759;28;20096;-82
2023/05/07 01:29:34;;;;;;;26.88;17.25;;;11.60;99.90;;;;;;5012962;28;20054;-82
2023/05/07 01:32:02;;;;;;;28.70;17.70;;;11.60;99.90;;;;;;5010918;28;20034;-82
2023/05/07 01:34:32;;;;;;;29.40;17.80;;;11.50;99.90;;;;;;5011551;28;20096;-83
2023/05/07 01:36:59;;;;;;;27.67;17.52;;;11.50;99.90;;;;;;5011690;28;20619;-83
2023/05/07 01:39:27;;;;;;;27.30;17.83;;;11.90;99.90;;;;;;5010412;28;20536;-83
2023/05/07 01:41:56;;;;;;;27.92;17.48;;;11.40;99.90;;;;;;5012550;28;20475;-83
2023/05/07 01:44:22;;;;;;;28.35;17.67;;;12.50;99.90;;;;;;5019575;28;20049;-82
2023/05/07 01:46:47;;;;;;;28.27;17.45;;;11.40;99.90;;;;;;5015926;28;20046;-82
2023/05/07 01:49:14;;;;;;;29.67;18.65;;;11.40;99.90;;;;;;5013354;28;20133;-83
2023/05/07 01:51:40;;;;;;;31.15;19.20;;;11.40;99.90;;;;;;5013112;28;20105;-83
2023/05/07 01:54:06;;;;;;;35.28;20.33;;;11.30;99.90;;;;;;5011204;28;20553;-83
2023/05/07 01:56:32;;;;;;;29.48;18.38;;;12.40;99.90;;;;;;5011898;28;20064;-83
2023/05/07 01:58:57;;;;;;;30.73;18.63;;;11.30;99.90;;;;;;5010498;28;20493;-82
2023/05/07 02:01:23;;;;;;;31.15;18.75;;;11.20;99.90;;;;;;5029479;28;20058;-82
2023/05/07 02:03:49;;;;;;;34.30;20.20;;;11.20;99.90;;;;;;5032660;28;20445;-83
2023/05/07 02:06:15;;;;;;;31.15;18.45;;;11.20;99.90;;;;;;5013043;28;20053;-83
2023/05/07 02:08:40;;;;;;;33.92;21.08;;;11.20;99.90;;;;;;5032358;28;20045;-83
2023/05/07 02:11:06;;;;;;;32.97;19.63;;;11.40;99.90;;;;;;5014326;28;20095;-83
2023/05/07 02:13:34;;;;;;;35.67;20.13;;;11.10;99.90;;;;;;5013722;28;20098;-82
2023/05/07 02:16:00;;;;;;;33.83;20.05;;;11.10;99.90;;;;;;5014893;28;20053;-83
2023/05/07 02:18:26;;;;;;;34.17;20.13;;;11.50;99.90;;;;;;5032038;28;20045;-82
2023/05/07 02:20:52;;;;;;;32.15;19.25;;;11.80;99.90;;;;;;5014078;28;20049;-83
2023/05/07 02:23:17;;;;;;;32.60;19.52;;;11.10;99.90;;;;;;5031519;28;20052;-83
2023/05/07 02:25:43;;;;;;;32.58;21.00;;;11.10;99.90;;;;;;5014550;28;20077;-83
2023/05/07 02:28:09;;;;;;;34.40;20.85;;;11.10;99.90;;;;;;5013689;28;20041;-83
2023/05/07 02:30:35;;;;;;;35.10;20.08;;;11.40;99.90;;;;;;5014653;28;20141;-82
2023/05/07 02:33:00;;;;;;;36.40;21.15;;;11.10;99.90;;;;;;5033022;28;20049;-82
2023/05/07 02:35:26;;;;;;;35.03;21.67;;;11.00;99.90;;;;;;5018029;28;20496;-82
2023/05/07 02:37:52;;;;;;;35.47;21.52;;;11.10;99.90;;;;;;5032336;28;20050;-82
2023/05/07 02:40:17;;;;;;;38.13;21.83;;;11.00;99.90;;;;;;5032012;28;20045;-82
2023/05/07 02:42:43;;;;;;;36.47;22.20;;;11.00;99.90;;;;;;5020054;28;20042;-82
2023/05/07 02:45:09;;;;;;;34.50;21.50;;;11.00;99.90;;;;;;5032232;28;20050;-83
2023/05/07 02:47:35;;;;;;;37.08;22.45;;;11.00;99.90;;;;;;5013677;28;20049;-83
2023/05/07 02:50:00;;;;;;;37.72;22.92;;;11.00;99.90;;;;;;5013824;28;20182;-83
2023/05/07 02:52:26;;;;;;;37.90;22.52;;;11.40;99.90;;;;;;5031518;28;20088;-83
2023/05/07 02:54:52;;;;;;;38.05;22.67;;;12.00;99.90;;;;;;5014198;28;20038;-82
2023/05/07 02:57:17;;;;;;;37.25;23.75;;;10.90;99.90;;;;;;5016705;28;20043;-83
2023/05/07 02:59:43;;;;;;;41.05;24.38;;;11.70;99.90;;;;;;5014494;28;20050;-82
2023/05/07 03:02:09;;;;;;;38.83;23.35;;;10.90;99.90;;;;;;5013793;28;20489;-82
2023/05/07 03:04:35;;;;;;;40.63;23.20;;;10.90;99.90;;;;;;5013931;28;20120;-83
2023/05/07 03:07:00;;;;;;;38.10;23.13;;;11.70;99.90;;;;;;5014381;28;20133;-83
2023/05/07 03:09:26;;;;;;;39.47;23.02;;;10.80;99.90;;;;;;5034460;22;20050;-82
2023/05/07 03:11:52;;;;;;;38.92;23.48;;;11.10;99.90;;;;;;5035384;28;20041;-82
2023/05/07 03:14:17;;;;;;;42.58;23.38;;;11.90;99.90;;;;;;5034680;28;20052;-82
2023/05/07 03:16:43;;;;;;;39.13;23.50;;;10.80;99.90;;;;;;5033447;28;20060;-82
2023/05/07 03:19:08;;;;;;;39.70;23.27;;;10.80;99.90;;;;;;5033444;28;20507;-83
2023/05/07 03:21:34;;;;;;;40.25;23.38;;;10.80;99.90;;;;;;5035124;28;20049;-82
2023/05/07 03:24:00;;;;;;;39.42;22.75;;;10.80;99.90;;;;;;5032746;28;20493;-82
2023/05/07 03:26:26;;;;;;;37.58;23.17;;;10.80;99.90;;;;;;5033631;28;20133;-83
2023/05/07 03:28:51;;;;;;;37.03;22.63;;;10.80;99.90;;;;;;5033454;28;20051;-82
2023/05/07 03:31:17;;;;;;;37.85;22.67;;;10.70;99.90;;;;;;5032477;28;20037;-83
2023/05/07 03:33:57;;;;;;;38.05;21.45;;;10.80;99.90;;;;;;5033696;28;20041;-83
2023/05/07 03:36:23;;;;;;;39.83;22.95;;;10.80;99.90;;;;;;5033588;28;20068;-82
2023/05/07 03:38:49;;;;;;;40.92;23.70;;;10.70;99.90;;;;;;5032329;28;20056;-82
2023/05/07 03:41:15;;;;;;;37.28;22.02;;;10.90;99.90;;;;;;5034621;28;20116;-82
2023/05/07 03:43:41;;;;;;;37.70;21.92;;;11.30;99.90;;;;;;5034692;28;20469;-82
2023/05/07 03:46:07;;;;;;;41.20;23.65;;;10.80;99.90;;;;;;5032602;28;20045;-81
2023/05/07 03:48:32;;;;;;;37.60;22.55;;;10.70;99.90;;;;;;5033246;28;20073;-83
2023/05/07 03:50:58;;;;;;;34.58;21.23;;;10.80;99.90;;;;;;5007709;22;20421;-82
2023/05/07 03:53:24;;;;;;;36.45;22.08;;;10.70;99.90;;;;;;4992668;28;20042;-82
2023/05/07 03:55:50;;;;;;;35.97;21.98;;;10.70;99.90;;;;;;4994037;28;20178;-82
2023/05/07 03:58:16;;;;;;;36.78;22.55;;;11.80;99.90;;;;;;4993324;28;20046;-82
2023/05/07 04:00:42;;;;;;;35.10;21.25;;;10.70;99.90;;;;;;4990885;28;20049;-82
2023/05/07 04:03:08;;;;;;;37.00;21.65;;;10.70;99.90;;;;;;4993602;28;20039;-82
2023/05/07 04:05:33;;;;;;;33.15;20.02;;;10.70;99.90;;;;;;4995405;28;20047;-82
2023/05/07 04:07:59;;;;;;;33.88;20.90;;;11.40;99.90;;;;;;4994771;28;20039;-81
2023/05/07 04:10:25;;;;;;;34.53;21.13;;;11.70;99.90;;;;;;4993899;28;20050;-82
2023/05/07 04:12:51;;;;;;;34.78;20.40;;;10.70;99.90;;;;;;4993443;28;20189;-83
2023/05/07 04:15:19;;;;;;;33.53;20.55;;;11.70;99.90;;;;;;4994246;28;20042;-82
2023/05/07 04:17:45;;;;;;;34.35;20.88;;;10.70;99.90;;;;;;4994986;28;20371;-83
2023/05/07 04:20:15;;;;;;;35.05;21.23;;;11.70;99.90;;;;;;4992281;28;20108;-82
2023/05/07 04:22:40;;;;;;;31.92;19.80;;;10.70;99.90;;;;;;4993376;28;20042;-82
2023/05/07 04:25:08;;;;;;;33.30;20.92;;;10.00;99.90;;;;;;4992802;28;20511;-83
2023/05/07 04:27:50;;;;;;;33.00;20.13;;;10.70;99.90;;;;;;4992523;28;20073;-82
2023/05/07 04:30:16;;;;;;;30.30;19.45;;;10.80;99.90;;;;;;4993270;28;20136;-82
2023/05/07 04:32:41;;;;;;;33.63;19.98;;;10.60;99.90;;;;;;4994293;28;20069;-82
2023/05/07 04:35:07;;;;;;;31.70;20.13;;;10.60;99.90;;;;;;4993349;28;20081;-82
2023/05/07 04:37:35;;;;;;;31.23;19.42;;;10.60;99.90;;;;;;4993140;28;20046;-82
2023/05/07 04:40:01;;;;;;;33.15;20.50;;;11.30;99.90;;;;;;4994380;28;20044;-82
2023/05/07 04:42:27;;;;;;;30.58;18.58;;;10.60;99.90;;;;;;4993731;28;20452;-82
2023/05/07 04:44:53;;;;;;;34.10;18.80;;;10.60;99.90;;;;;;4994133;28;20042;-82
2023/05/07 04:47:22;;;;;;;29.05;18.90;;;10.70;99.90;;;;;;4993441;28;20050;-83
2023/05/07 04:49:47;;;;;;;32.30;19.92;;;11.20;99.90;;;;;;5019404;28;20061;-82
2023/05/07 04:52:16;;;;;;;32.03;19.65;;;10.70;99.90;;;;;;5033420;28;20099;-82
2023/05/07 04:54:42;;;;;;;30.13;19.35;;;10.70;99.90;;;;;;5032737;28;20049;-82
2023/05/07 04:57:07;;;;;;;30.98;18.88;;;10.70;99.90;;;;;;5032993;28;20045;-83
2023/05/07 04:59:33;;;;;;;29.20;18.33;;;10.70;99.90;;;;;;5032830;28;20045;-83
2023/05/07 05:01:59;;;;;;;32.75;19.17;;;10.80;99.90;;;;;;5014825;28;20053;-83
2023/05/07 05:04:25;;;;;;;31.55;18.88;;;10.80;99.90;;;;;;5038551;23;20132;-83
2023/05/07 05:06:51;;;;;;;29.77;18.27;;;12.00;99.90;;;;;;4995289;28;20413;-83
2023/05/07 05:09:16;;;;;;;30.13;18.77;;;10.80;99.90;;;;;;4994722;28;20050;-82
2023/05/07 05:11:42;;;;;;;29.15;18.35;;;11.00;99.90;;;;;;4995945;28;20148;-82
2023/05/07 05:14:08;;;;;;;30.77;17.40;;;10.90;99.90;;;;;;5011619;28;20049;-82
2023/05/07 05:16:33;;;;;;;30.20;18.50;;;10.90;99.90;;;;;;4994581;28;20038;-82
2023/05/07 05:18:59;;;;;;;29.63;18.77;;;11.60;99.90;;;;;;5024219;28;20049;-82
2023/05/07 05:21:25;;;;;;;31.45;18.60;;;10.90;99.90;;;;;;5014488;28;20052;-83
2023/05/07 05:23:51;;;;;;;30.80;19.50;;;11.10;99.90;;;;;;5014159;28;20049;-82
2023/05/07 05:26:17;;;;;;;31.55;18.65;;;12.10;99.90;;;;;;5014933;28;20429;-83
2023/05/07 05:28:43;;;;;;;29.35;18.73;;;11.10;99.90;;;;;;5014702;28;20045;-83
2023/05/07 05:31:08;;;;;;;31.55;19.13;;;11.20;99.90;;;;;;5031421;28;20084;-83
2023/05/07 05:33:34;;;;;;;30.75;19.30;;;11.20;99.90;;;;;;5010005;28;20050;-83
2023/05/07 05:36:00;;;;;;;32.67;19.35;;;12.30;99.90;;;;;;5013622;28;20052;-82
2023/05/07 05:38:26;;;;;;;30.55;19.73;;;11.30;99.90;;;;;;4994964;28;20401;-82
2023/05/07 05:41:10;;;;;;;28.63;18.58;;;12.20;99.90;;;;;;5013728;28;20370;-83
2023/05/07 05:43:55;;;;;;;31.52;19.27;;;12.10;99.90;;;;;;4995406;28;20620;-83
2023/05/07 05:46:21;;;;;;;29.50;18.77;;;11.40;99.90;;;;;;4994909;28;20045;-83
2023/05/07 05:48:47;;;;;;;29.90;18.48;;;12.00;99.90;;;;;;5012891;28;20455;-82
2023/05/07 05:51:19;;;;;;;31.27;19.25;;;12.20;99.90;;;;;;5011873;28;20049;-82
2023/05/07 05:53:44;;;;;;;30.85;19.80;;;12.00;99.90;;;;;;5012578;28;20520;-82
2023/05/07 05:56:10;;;;;;;32.70;19.40;;;12.50;99.90;;;;;;4994825;28;20050;-83
2023/05/07 05:58:43;;;;;;;30.52;20.60;;;12.50;99.90;;;;;;4994196;28;20404;-83
2023/05/07 06:01:09;;;;;;;30.38;18.70;;;12.60;99.90;;;;;;5010241;23;20156;-82
2023/05/07 06:03:35;;;;;;;31.73;19.38;;;12.00;99.90;;;;;;5033849;28;20591;-80
2023/05/07 06:06:14;;;;;;;30.98;20.00;;;12.60;99.90;;;;;;5033700;28;20051;-79
2023/05/07 06:08:40;;;;;;;30.73;18.95;;;11.40;99.90;;;;;;5051375;28;20480;-80
2023/05/07 06:11:05;;;;;;;30.25;19.55;;;11.80;99.90;;;;;;5034356;28;20037;-80
2023/05/07 06:13:31;;;;;;;32.00;20.00;;;11.90;99.90;;;;;;5024514;28;20493;-80
2023/05/07 06:15:58;;;;;;;30.38;19.25;;;13.00;99.90;;;;;;5041362;28;20067;-81
2023/05/07 06:18:23;;;;;;;29.27;19.10;;;11.90;99.90;;;;;;5037864;28;20087;-80
2023/05/07 06:20:49;;;;;;;32.28;19.70;;;12.00;99.90;;;;;;5051230;28;20072;-80
2023/05/07 06:23:17;;;;;;;30.35;19.73;;;12.30;99.90;;;;;;5051514;28;20408;-80
2023/05/07 06:25:48;;;;;;;30.20;20.30;;;12.00;99.90;;;;;;5034214;28;20044;-80
2023/05/07 06:28:14;;;;;;;31.40;20.13;;;12.10;99.90;;;;;;5051062;28;20041;-80
2023/05/07 06:30:40;;;;;;;33.00;20.77;;;12.50;99.90;;;;;;5035302;28;20044;-79
2023/05/07 06:33:05;;;;;;;32.05;19.90;;;12.90;99.90;;;;;;5037650;28;20044;-80
2023/05/07 06:35:31;;;;;;;31.38;20.25;;;12.10;99.90;;;;;;5016807;28;20057;-80
2023/05/07 06:37:57;;;;;;;31.67;19.40;;;12.10;99.90;;;;;;5017961;28;20037;-80
2023/05/07 06:40:22;;;;;;;33.50;19.65;;;12.10;99.90;;;;;;5053261;28;20472;-80
2023/05/07 06:42:48;;;;;;;30.35;19.27;;;12.80;99.90;;;;;;5038199;28;20547;-80
2023/05/07 06:45:14;;;;;;;33.70;19.92;;;12.70;99.90;;;;;;5055252;28;20084;-80
2023/05/07 06:47:39;;;;;;;30.27;19.17;;;12.30;99.90;;;;;;5054612;28;20041;-80
2023/05/07 06:50:06;;;;;;;31.42;20.20;;;13.30;99.90;;;;;;5055543;28;20048;-79
2023/05/07 06:52:31;;;;;;;32.78;20.27;;;12.30;99.90;;;;;;5037353;28;20048;-80
2023/05/07 06:54:57;;;;;;;31.17;19.63;;;12.20;99.90;;;;;;5054798;28;20040;-81
2023/05/07 06:57:23;;;;;;;31.35;19.45;;;12.20;99.90;;;;;;5055396;28;20049;-81
2023/05/07 06:59:49;;;;;;;33.75;19.88;;;12.30;99.90;;;;;;5055306;28;20037;-81
2023/05/07 07:02:14;;;;;;;31.13;19.73;;;12.40;99.90;;;;;;5054173;28;20049;-81
2023/05/07 07:04:41;;;;;;;35.92;21.27;;;13.30;99.90;;;;;;5036978;28;20044;-81
2023/05/07 07:07:07;;;;;;;32.22;20.85;;;12.60;99.90;;;;;;5036098;28;20052;-81
2023/05/07 07:09:33;;;;;;;33.72;20.85;;;12.50;99.90;;;;;;5036415;28;20084;-80
2023/05/07 07:11:59;;;;;;;31.92;20.77;;;12.40;99.90;;;;;;5052278;28;20069;-81
2023/05/07 07:14:30;;;;;;;32.30;20.50;;;12.40;99.90;;;;;;5040035;28;20126;-81
2023/05/07 07:16:56;;;;;;;30.40;20.00;;;13.60;99.90;;;;;;5044917;28;20083;-81
2023/05/07 07:19:22;;;;;;;30.90;20.33;;;12.50;99.90;;;;;;5030456;28;20076;-81
2023/05/07 07:21:47;;;;;;;33.45;21.25;;;12.90;99.90;;;;;;5036192;28;20132;-81
2023/05/07 07:24:30;;;;;;;30.40;19.40;;;13.70;99.90;;;;;;5035329;28;20049;-82
2023/05/07 07:26:55;;;;;;;31.85;20.98;;;12.50;99.90;;;;;;5036112;28;20128;-81
2023/05/07 07:29:36;;;;;;;30.95;20.02;;;12.30;99.90;;;;;;5053400;28;20153;-81
2023/05/07 07:32:02;;;;;;;32.20;21.05;;;12.50;99.90;;;;;;5036573;28;20183;-81
2023/05/07 07:34:27;;;;;;;31.20;19.90;;;12.40;99.90;;;;;;5028867;28;20116;-81
2023/05/07 07:37:08;;;;;;;33.70;19.98;;;13.70;99.90;;;;;;5053164;28;20045;-81
2023/05/07 07:39:34;;;;;;;31.00;19.70;;;12.70;99.90;;;;;;5054167;28;20041;-81
2023/05/07 07:42:00;;;;;;;32.00;19.95;;;12.90;99.90;;;;;;5036264;28;20041;-81
2023/05/07 07:44:27;;;;;;;32.03;20.13;;;13.60;99.90;;;;;;5053344;28;20481;-80
2023/05/07 07:46:52;;;;;;;30.58;20.23;;;13.20;99.90;;;;;;5044104;28;20063;-80
2023/05/07 07:49:18;;;;;;;32.83;21.20;;;13.30;99.90;;;;;;5041325;28;20040;-81
2023/05/07 07:51:43;;;;;;;31.67;20.65;;;13.50;99.90;;;;;;5035676;28;20045;-80
2023/05/07 07:54:09;;;;;;;29.60;19.50;;;14.40;99.90;;;;;;5036007;28;20094;-81
2023/05/07 07:56:35;;;;;;;29.15;19.55;;;14.20;99.90;;;;;;5036645;28;20040;-80
2023/05/07 07:59:01;;;;;;;31.10;20.45;;;14.00;99.90;;;;;;5046806;28;20100;-81
2023/05/07 08:01:27;;;;;;;30.00;19.83;;;14.60;99.90;;;;;;5015750;28;20186;-81
2023/05/07 08:03:52;;;;;;;29.40;19.55;;;13.70;99.90;;;;;;5037178;28;20041;-81
2023/05/07 08:06:18;;;;;;;28.75;18.85;;;13.70;99.90;;;;;;5035005;28;20087;-81
2023/05/07 08:08:44;;;;;;;30.50;20.08;;;14.50;99.90;;;;;;5035597;28;20051;-81
2023/05/07 08:11:10;;;;;;;27.92;18.98;;;14.30;99.90;;;;;;5053746;28;20090;-81
2023/05/07 08:13:37;;;;;;;29.85;20.38;;;13.80;99.90;;;;;;5291184;22;20039;-81
2023/05/07 08:16:04;;;;;;;28.58;18.98;;;14.90;99.90;;;;;;4995948;28;20611;-81
2023/05/07 08:18:29;;;;;;;27.30;18.40;;;13.80;99.90;;;;;;4996461;28;20052;-81
2023/05/07 08:21:08;;;;;;;28.38;18.92;;;14.60;99.90;;;;;;4995129;28;20049;-81
2023/05/07 08:23:34;;;;;;;31.50;19.67;;;14.80;99.90;;;;;;4996786;28;20057;-82
2023/05/07 08:26:00;;;;;;;29.40;19.33;;;13.80;99.90;;;;;;5013323;28;20152;-81
2023/05/07 08:28:31;;;;;;;27.08;18.02;;;13.90;99.90;;;;;;5013744;28;20637;-82
2023/05/07 08:31:00;;;;;;;26.27;17.35;;;13.90;99.90;;;;;;4999241;28;20050;-81
2023/05/07 08:33:27;;;;;;;28.23;18.08;;;15.10;99.90;;;;;;5001445;28;20137;-82
2023/05/07 08:35:52;;;;;;;28.02;18.10;;;15.30;99.90;;;;;;4996136;28;20065;-82
2023/05/07 08:38:33;;;;;;;25.60;17.80;;;15.20;99.90;;;;;;4999937;28;20046;-81
2023/05/07 08:44:59;;;;;;;27.30;17.75;;;14.30;99.90;;;;;;5013609;28;20044;-82
2023/05/07 08:47:33;;;;;;;27.52;18.40;;;15.00;99.90;;;;;;4995009;28;20045;-82
2023/05/07 08:50:07;;;;;;;26.05;17.75;;;14.70;99.90;;;;;;4995670;28;20514;-81
2023/05/07 08:52:35;;;;;;;24.95;17.30;;;14.60;99.90;;;;;;5013771;28;20481;-82
2023/05/07 08:55:13;;;;;;;25.80;17.92;;;15.90;99.90;;;;;;4994964;28;20049;-81
2023/05/07 08:57:38;;;;;;;26.73;17.10;;;15.60;99.90;;;;;;4996392;28;20041;-81
2023/05/07 09:00:17;;;;;;;27.40;16.38;;;15.50;99.90;;;;;;4995373;28;20034;-82
2023/05/07 09:03:01;;;;;;;24.48;17.48;;;15.30;99.90;;;;;;4995374;28;20045;-81
2023/05/07 09:05:27;;;;;;;23.80;16.67;;;15.50;99.90;;;;;;5012595;28;20516;-82
2023/05/07 09:07:52;;;;;;;24.83;16.50;;;16.40;99.90;;;;;;5013345;28;20045;-81
2023/05/07 09:10:33;;;;;;;24.65;16.52;;;16.70;99.90;;;;;;5003754;28;20046;-81
2023/05/07 09:12:59;;;;;;;23.15;16.60;;;15.80;99.90;;;;;;4979585;28;20390;-81
2023/05/07 09:15:50;;;;;;;23.65;15.30;;;16.60;99.90;;;;;;4996843;28;20057;-83
2023/05/07 09:18:16;;;;;;;23.05;16.33;;;16.00;99.90;;;;;;4995011;28;20401;-81
2023/05/07 09:20:57;;;;;;;23.20;15.90;;;16.60;99.90;;;;;;4995183;28;20042;-82
2023/05/07 09:23:25;;;;;;;23.80;16.23;;;16.40;99.90;;;;;;5011960;28;20058;-81
2023/05/07 09:26:11;;;;;;;21.90;15.40;;;17.70;99.90;;;;;;5012693;28;20454;-82
2023/05/07 09:28:55;;;;;;;22.35;16.17;;;16.60;99.90;;;;;;4995388;28;20049;-81
2023/05/07 09:31:23;;;;;;;;;;;16.50;99.90;;;;;;5012088;28;20046;-81
2023/05/07 09:34:05;;;;;;;22.00;15.77;;;16.40;99.90;;;;;;4994877;28;19925;-82
2023/05/07 09:36:32;;;;;;;23.40;16.00;;;17.10;99.90;;;;;;5012195;28;20042;-81
2023/05/07 09:39:07;;;;;;;22.17;15.48;;;17.30;99.90;;;;;;5013046;28;20554;-82
2023/05/07 09:41:32;;;;;;;20.60;15.35;;;17.10;99.90;;;;;;5012641;28;20046;-81
2023/05/07 09:44:10;;;;;;;21.58;15.68;;;17.30;99.90;;;;;;4994529;28;20038;-81
2023/05/07 09:46:53;;;;;;;21.75;15.88;;;16.70;99.90;;;;;;5012179;28;20044;-81
2023/05/07 09:49:22;;;;;;;22.02;15.40;;;16.90;99.90;;;;;;4994001;28;20053;-82
2023/05/07 09:51:52;;;;;;;19.77;14.18;;;16.80;99.90;;;;;;4966769;28;20440;-81
2023/05/07 09:54:30;;;;;;;23.48;15.35;;;17.30;99.90;;;;;;4993099;28;20034;-81
2023/05/07 09:57:02;;;;;;;21.00;14.73;;;17.20;99.90;;;;;;4967505;28;20494;-81
2023/05/07 09:59:32;;;;;;;21.08;14.75;;;17.50;99.90;;;;;;4996180;28;20042;-84
2023/05/07 10:01:59;;;;;;;20.58;13.80;;;18.10;99.90;;;;;;4976596;28;20548;-83
2023/05/07 10:04:41;;;;;;;20.10;14.60;;;17.80;99.90;;;;;;4977211;28;20046;-82
2023/05/07 10:07:22;;;;;;;20.17;14.25;;;17.90;99.90;;;;;;5004173;28;20570;-83
2023/05/07 10:09:54;;;;;;;22.63;15.30;;;18.00;99.90;;;;;;5017264;28;20118;-83
2023/05/07 10:12:49;;;;;;;22.83;15.02;;;18.50;99.90;;;;;;5016251;28;20049;-83
2023/05/07 10:15:40;;;;;;;20.33;15.15;;;18.20;99.90;;;;;;5027393;23;20046;-85
2023/05/07 10:18:32;;;;;;;20.10;14.45;;;18.40;99.90;;;;;;5024886;28;20060;-82
2023/05/07 10:21:35;;;;;;;21.27;14.90;;;18.20;99.90;;;;;;5035279;28;20037;-82
2023/05/07 10:33:13;;;;;;;21.50;14.73;;;18.60;99.90;;;;;;5017649;23;20086;-84
2023/05/07 10:35:51;;;;;;;22.60;16.02;;;19.00;99.90;;;;;;5003723;28;20124;-83
2023/05/07 10:38:31;;;;;;;20.25;14.55;;;18.90;99.90;;;;;;4997541;28;20481;-82
2023/05/07 10:40:57;;;;;;;19.60;15.10;;;19.10;99.90;;;;;;4995635;28;20100;-82
2023/05/07 10:47:21;;;;;;;20.38;15.07;;;19.20;99.90;;;;;;4968318;28;20046;-82
2023/05/07 10:50:31;;;;;;;19.83;15.20;;;18.70;99.90;;;;;;5006880;28;20108;-82
2023/05/07 10:53:38;;;;;;;22.13;14.98;;;19.10;99.90;;;;;;4986972;28;20050;-82
2023/05/07 10:56:50;;;;;;;19.13;14.30;;;18.90;99.90;;;;;;5008372;28;20124;-82
2023/05/07 11:02:11;;;;;;;20.02;14.82;;;19.00;99.90;;;;;;4993448;28;20050;-82
2023/05/07 11:04:38;;;;;;;20.45;15.10;;;18.80;99.90;;;;;;4997034;28;20052;-82
2023/05/07 11:07:34;;;;;;;19.15;14.45;;;18.60;99.90;;;;;;5012157;28;20087;-82
2023/05/07 11:10:12;;;;;;;19.25;14.63;;;18.60;99.90;;;;;;5013194;28;20511;-81
2023/05/07 11:12:56;;;;;;;20.48;14.73;;;19.70;99.90;;;;;;5014420;28;20042;-83
2023/05/07 11:15:41;;;;;;;20.60;14.50;;;19.00;99.90;;;;;;5008777;28;20046;-82
2023/05/07 11:18:52;;;;;;;19.55;14.25;;;19.30;99.90;;;;;;4996446;28;20054;-82
2023/05/07 11:21:36;;;;;;;20.63;15.02;;;19.80;99.90;;;;;;5010811;28;20141;-82
2023/05/07 11:24:21;;;;;;;20.65;14.98;;;19.80;99.90;;;;;;4997233;28;20045;-82
2023/05/07 11:26:55;;;;;;;19.65;14.55;;;19.80;99.90;;;;;;5014228;23;20077;-82
2023/05/07 11:29:21;;;;;;;20.45;15.75;;;19.80;99.90;;;;;;5013945;28;20061;-82
2023/05/07 11:32:31;;;;;;;19.88;14.55;;;20.00;99.90;;;;;;5013267;28;20045;-82
2023/05/07 11:43:30;;;;;;;19.38;14.80;;;20.40;99.90;;;;;;4991751;28;20045;-82
2023/05/07 11:49:32;;;;;;;18.25;13.95;;;20.80;99.90;;;;;;4915029;29;20052;-82
2023/05/07 11:52:41;;;;;;;17.90;13.60;;;20.80;99.90;;;;;;4963002;28;20071;-83
2023/05/07 11:55:37;;;;;;;18.95;14.18;;;20.80;99.90;;;;;;4991755;28;20047;-82
2023/05/07 12:01:49;;;;;;;18.80;14.30;;;20.80;99.90;;;;;;4992378;28;20614;-83
2023/05/07 12:04:30;;;;;;;18.08;13.48;;;20.30;99.90;;;;;;4974734;28;20050;-82
2023/05/07 12:07:02;;;;;;;18.33;14.18;;;20.70;99.90;;;;;;4975230;28;20050;-82
2023/05/07 12:09:51;;;;;;;17.20;13.00;;;20.90;99.90;;;;;;5038602;23;21269;-82
2023/05/07 12:12:18;;;;;;;17.92;13.98;;;21.10;99.90;;;;;;5028340;28;20497;-82
2023/05/07 12:15:17;;;;;;;19.50;13.82;;;21.80;99.90;;;;;;5033516;28;20064;-82
2023/05/07 12:18:30;;;;;;;18.63;14.00;;;21.00;99.90;;;;;;5032416;28;20092;-82
2023/05/07 12:43:38;;;;;;;18.50;12.75;;;21.80;99.90;;;;;;5011182;28;20060;-83
2023/05/07 12:46:31;;;;;;;16.67;12.82;;;21.50;99.90;;;;;;5026092;28;20108;-81
2023/05/07 12:49:40;;;;;;;17.33;13.48;;;21.20;99.90;;;;;;5076878;23;20038;-83
2023/05/07 12:53:10;;;;;;;17.70;12.90;;;21.00;99.90;;;;;;4961810;28;20055;-82
2023/05/07 12:56:30;;;;;;;15.90;11.98;;;20.90;99.90;;;;;;4961487;28;20487;-82
2023/05/07 12:59:56;;;;;;;18.00;13.07;;;21.00;99.90;;;;;;4976472;28;20060;-83
2023/05/07 13:02:52;;;;;;;15.27;11.25;;;20.80;99.90;;;;;;4975776;28;20480;-83
2023/05/07 13:05:18;;;;;;;15.68;11.90;;;20.90;99.90;;;;;;4995776;28;20042;-82
2023/05/07 13:08:01;;;;;;;16.70;12.57;;;20.70;99.90;;;;;;4975984;28;20399;-82
2023/05/07 13:10:30;;;;;;;15.25;11.45;;;20.50;99.90;;;;;;4956727;28;20505;-82
2023/05/07 13:12:56;;;;;;;15.90;11.40;;;20.30;99.90;;;;;;4960770;28;20092;-82
2023/05/07 13:15:21;;;;;;;15.27;11.25;;;20.30;99.90;;;;;;4956501;28;20047;-81
2023/05/07 13:17:50;;;;;;;16.08;11.85;;;20.30;99.90;;;;;;4959346;28;20482;-81
2023/05/07 13:20:31;;;;;;;18.42;11.60;;;20.20;99.90;;;;;;4973287;28;20410;-82
2023/05/07 13:23:09;;;;;;;16.65;11.70;;;20.00;99.90;;;;;;4992090;28;20053;-80
2023/05/07 13:25:37;;;;;;;15.50;11.55;;;20.60;99.90;;;;;;4975044;28;20069;-80
2023/05/07 13:28:18;;;;;;;15.32;10.50;;;19.70;99.90;;;;;;4964736;28;20394;-80
2023/05/07 13:30:48;;;;;;;15.30;11.45;;;19.70;99.90;;;;;;4991477;28;20038;-80
2023/05/07 13:33:32;;;;;;;16.20;12.48;;;19.70;99.90;;;;;;4974934;28;20084;-80
2023/05/07 13:36:00;;;;;;;15.60;12.13;;;19.60;99.90;;;;;;4962005;28;20093;-82
2023/05/07 13:38:32;;;;;;;15.52;11.88;;;20.30;99.90;;;;;;4974601;28;20409;-81
2023/05/07 13:40:58;;;;;;;15.13;11.20;;;19.50;99.90;;;;;;4992023;28;20446;-80
2023/05/07 13:43:33;;;;;;;15.85;11.90;;;20.10;99.90;;;;;;4991865;28;20129;-81
2023/05/07 13:46:02;;;;;;;14.90;11.55;;;20.30;99.90;;;;;;4992690;28;20049;-83
2023/05/07 13:48:48;;;;;;;18.23;13.13;;;20.00;99.90;;;;;;4998925;28;20038;-82